Time;durP1;ratioP1;P1;durP2;ratioP2;P2;SDS_P1;SDS_P2;PMS_P1;PMS_P2;Temp;Humidity;BMP_temperature;BMP_pressure;BME280_temperature;BME280_humidity;BME280_pressure;Samples;Min_cycle;Max_cycle;Signal;HPM_P1;HPM_P2
2023/03/09 00:00:15;;;;;;;0.50;0.50;;;;;;;8.25;100.00;94490.75;29395;285;63009;-66
2023/03/09 00:00:47;;;;;;;0.50;0.50;;;;;;;8.32;100.00;94485.56;29395;276;63004;-55
2023/03/09 00:01:20;;;;;;;0.50;0.50;;;;;;;8.30;100.00;94487.84;29395;201;63008;-55
2023/03/09 00:01:54;;;;;;;0.50;0.50;;;;;;;8.29;100.00;94497.06;29395;214;63005;-54
2023/03/09 00:02:25;;;;;;;0.50;0.50;;;;;;;8.29;100.00;94488.97;29395;203;63009;-54
2023/03/09 00:02:57;;;;;;;0.50;0.50;;;;;;;8.33;100.00;94487.97;29395;219;63005;-55
2023/03/09 00:03:28;;;;;;;0.50;0.50;;;;;;;8.32;100.00;94496.38;29395;253;63009;-55
2023/03/09 00:04:00;;;;;;;0.50;0.50;;;;;;;8.40;100.00;94488.19;29395;253;63000;-55
2023/03/09 00:04:32;;;;;;;0.50;0.50;;;;;;;8.39;100.00;94496.63;29394;213;64013;-55
2023/03/09 00:05:04;;;;;;;0.50;0.50;;;;;;;8.36;100.00;94481.09;29395;220;63005;-55
2023/03/09 00:05:35;;;;;;;0.50;0.50;;;;;;;8.34;100.00;94484.13;29395;224;63005;-55
2023/03/09 00:06:07;;;;;;;0.50;0.50;;;;;;;8.37;100.00;94479.97;29395;197;63010;-55
2023/03/09 00:06:38;;;;;;;0.50;0.50;;;;;;;8.38;100.00;94484.25;29395;241;63009;-55
2023/03/09 00:07:09;;;;;;;0.50;0.50;;;;;;;8.37;100.00;94471.88;29395;233;63004;-55
2023/03/09 00:07:41;;;;;;;0.50;0.50;;;;;;;8.35;100.00;94479.50;29395;216;63009;-55
2023/03/09 00:08:12;;;;;;;0.50;0.50;;;;;;;8.34;100.00;94483.34;29395;280;63004;-55
2023/03/09 00:08:43;;;;;;;0.50;0.50;;;;;;;8.30;100.00;94480.53;29395;202;63008;-55
2023/03/09 00:09:15;;;;;;;0.50;0.50;;;;;;;8.33;100.00;94482.56;29394;213;64008;-55
2023/03/09 00:09:47;;;;;;;0.50;0.50;;;;;;;8.32;100.00;94493.66;29395;281;63009;-55
2023/03/09 00:10:19;;;;;;;0.50;0.50;;;;;;;8.32;100.00;94490.97;29395;222;63005;-56
2023/03/09 00:10:52;;;;;;;0.50;0.50;;;;;;;8.32;100.00;94496.38;29395;218;63009;-56
2023/03/09 00:11:24;;;;;;;0.50;0.50;;;;;;;8.36;100.00;94490.00;29394;313;64009;-55
2023/03/09 00:11:55;;;;;;;0.50;0.50;;;;;;;8.39;100.00;94485.81;29395;255;63009;-55
2023/03/09 00:12:27;;;;;;;0.50;0.50;;;;;;;8.40;100.00;94490.91;29395;210;63005;-56
2023/03/09 00:12:59;;;;;;;0.50;0.50;;;;;;;8.41;100.00;94488.97;29395;196;63009;-56
2023/03/09 00:13:31;;;;;;;0.50;0.50;;;;;;;8.41;100.00;94499.78;29395;196;63005;-55
2023/03/09 00:14:03;;;;;;;0.50;0.50;;;;;;;8.44;100.00;94501.81;29394;223;64013;-55
2023/03/09 00:14:34;;;;;;;0.50;0.50;;;;;;;8.42;100.00;94495.97;29395;213;63018;-54
2023/03/09 00:15:07;;;;;;;0.50;0.50;;;;;;;8.40;100.00;94503.63;29395;213;63009;-55
2023/03/09 00:15:38;;;;;;;0.50;0.50;;;;;;;8.46;100.00;94518.50;29395;337;63004;-55
2023/03/09 00:16:23;;;;;;;0.50;0.50;;;;;;;8.46;100.00;94517.69;29395;229;63008;-55
2023/03/09 00:16:58;;;;;;;0.50;0.50;;;;;;;8.43;100.00;94518.38;29394;234;64009;-55
2023/03/09 00:17:32;;;;;;;0.50;0.50;;;;;;;8.40;100.00;94525.22;29394;206;64014;-55
2023/03/09 00:18:05;;;;;;;0.50;0.50;;;;;;;8.36;100.00;94527.81;29395;244;63005;-55
2023/03/09 00:18:38;;;;;;;0.50;0.50;;;;;;;8.37;100.00;94544.81;29395;222;63009;-54
2023/03/09 00:19:09;;;;;;;0.50;0.50;;;;;;;8.35;100.00;94545.16;29395;222;63005;-55
2023/03/09 00:19:41;;;;;;;0.50;0.50;;;;;;;8.35;100.00;94528.16;29394;207;64013;-55
2023/03/09 00:20:17;;;;;;;0.50;0.50;;;;;;;8.39;100.00;94535.25;29395;232;63005;-57
2023/03/09 00:20:49;;;;;;;0.50;0.50;;;;;;;8.40;100.00;94541.44;29395;245;63009;-56
2023/03/09 00:21:41;;;;;;;0.50;0.50;;;;;;;8.42;100.00;94571.63;29395;202;63004;-55
2023/03/09 00:22:13;;;;;;;0.50;0.50;;;;;;;8.42;100.00;94565.44;29395;227;63009;-62
2023/03/09 00:22:50;;;;;;;0.50;0.50;;;;;;;8.44;100.00;94558.56;29395;197;63004;-56
2023/03/09 00:23:21;;;;;;;0.50;0.50;;;;;;;8.50;100.00;94559.16;29395;202;63009;-56
2023/03/09 00:23:52;;;;;;;0.50;0.50;;;;;;;8.56;100.00;94574.81;29395;208;63004;-55
2023/03/09 00:24:26;;;;;;;0.50;0.50;;;;;;;8.56;100.00;94593.75;29394;194;64013;-55
2023/03/09 00:24:57;;;;;;;0.50;0.50;;;;;;;8.59;100.00;94606.59;29394;333;64009;-54
2023/03/09 00:25:29;;;;;;;0.60;0.60;;;;;;;8.69;100.00;94554.75;29395;220;63009;-52
2023/03/09 00:26:05;;;;;;;0.50;0.50;;;;;;;8.79;100.00;94568.97;29395;214;63005;-61
2023/03/09 00:26:39;;;;;;;0.50;0.50;;;;;;;8.82;100.00;94579.09;29395;283;63009;-55
2023/03/09 00:27:11;;;;;;;0.50;0.50;;;;;;;8.83;100.00;94586.09;29395;264;63005;-58
2023/03/09 00:27:43;;;;;;;0.50;0.50;;;;;;;8.82;100.00;94573.69;29395;215;63009;-58
2023/03/09 00:28:14;;;;;;;0.50;0.50;;;;;;;8.85;100.00;94584.63;29395;311;63008;-57
2023/03/09 00:28:45;;;;;;;0.50;0.50;;;;;;;8.83;100.00;94580.69;29395;220;63009;-57
2023/03/09 00:29:17;;;;;;;0.50;0.50;;;;;;;8.78;100.00;94580.91;29395;198;63004;-57
2023/03/09 00:29:48;;;;;;;0.50;0.50;;;;;;;8.74;100.00;94589.69;29394;227;64013;-57
2023/03/09 00:30:20;;;;;;;0.50;0.50;;;;;;;8.80;100.00;94592.19;29395;221;63004;-56
2023/03/09 00:30:51;;;;;;;0.50;0.50;;;;;;;8.80;100.00;94587.56;29394;277;64013;-60
2023/03/09 00:31:23;;;;;;;0.93;0.75;;;;;;;8.85;100.00;94586.56;29394;196;64008;-58
2023/03/09 00:31:55;;;;;;;0.50;0.50;;;;;;;8.82;100.00;94598.03;29395;282;63008;-56
2023/03/09 00:32:26;;;;;;;0.50;0.50;;;;;;;8.82;100.00;94603.44;29395;205;63005;-68
2023/03/09 00:32:59;;;;;;;0.60;0.60;;;;;;;8.83;100.00;94605.03;29395;218;63009;-58
2023/03/09 00:33:31;;;;;;;0.50;0.50;;;;;;;8.84;100.00;94593.09;29395;257;63008;-56
2023/03/09 00:34:02;;;;;;;0.50;0.50;;;;;;;8.83;100.00;94586.09;29395;203;63009;-56
2023/03/09 00:34:34;;;;;;;0.50;0.50;;;;;;;8.79;100.00;94596.00;29395;315;63005;-57
2023/03/09 00:35:08;;;;;;;0.50;0.50;;;;;;;8.74;100.00;94587.00;29394;365;64013;-55
2023/03/09 00:35:39;;;;;;;0.50;0.50;;;;;;;8.69;100.00;94581.78;29395;197;63004;-57
2023/03/09 00:36:14;;;;;;;0.50;0.50;;;;;;;8.70;100.00;94585.28;29395;199;63009;-58
2023/03/09 00:36:47;;;;;;;0.50;0.50;;;;;;;8.73;100.00;94601.62;29395;199;63004;-57
2023/03/09 00:37:18;;;;;;;0.60;0.60;;;;;;;8.76;100.00;94594.75;29394;208;64013;-57
2023/03/09 00:37:51;;;;;;;0.50;0.50;;;;;;;8.79;100.00;94598.72;29395;244;63004;-57
2023/03/09 00:38:22;;;;;;;0.70;0.70;;;;;;;8.78;100.00;94592.50;29395;212;63008;-57
2023/03/09 00:38:56;;;;;;;0.50;0.50;;;;;;;8.81;100.00;94599.16;29395;239;63005;-55
2023/03/09 00:39:27;;;;;;;0.50;0.50;;;;;;;8.84;100.00;94590.37;29395;224;63009;-57
2023/03/09 00:39:58;;;;;;;0.50;0.50;;;;;;;8.84;100.00;94603.91;29395;218;63005;-58
2023/03/09 00:40:30;;;;;;;0.50;0.50;;;;;;;8.81;100.00;94589.13;29395;217;63009;-57
2023/03/09 00:41:04;;;;;;;0.50;0.50;;;;;;;8.82;100.00;94616.97;29395;209;63010;-57
2023/03/09 00:41:35;;;;;;;0.50;0.50;;;;;;;8.85;100.00;94606.28;29395;218;63009;-59
2023/03/09 00:42:06;;;;;;;0.50;0.50;;;;;;;8.90;100.00;94607.97;29395;227;63005;-58
2023/03/09 00:42:41;;;;;;;0.50;0.50;;;;;;;8.88;100.00;94604.81;29394;286;64013;-57
2023/03/09 00:43:12;;;;;;;0.50;0.50;;;;;;;8.93;100.00;94601.88;29395;238;63004;-57
2023/03/09 00:43:44;;;;;;;0.50;0.50;;;;;;;8.93;98.99;94613.50;29395;347;63009;-54
2023/03/09 00:44:15;;;;;;;0.50;0.50;;;;;;;8.94;98.28;94619.69;29395;234;63004;-56
2023/03/09 00:44:47;;;;;;;0.50;0.50;;;;;;;8.93;98.21;94634.34;29395;217;63009;-60
2023/03/09 00:45:18;;;;;;;1.20;1.10;;;;;;;8.94;97.59;94614.28;29395;337;63004;-57
2023/03/09 00:45:49;;;;;;;0.50;0.50;;;;;;;8.90;98.25;94626.91;29395;228;63008;-57
2023/03/09 00:46:20;;;;;;;0.50;0.50;;;;;;;8.90;98.35;94616.09;29395;204;63005;-57
2023/03/09 00:46:52;;;;;;;0.50;0.50;;;;;;;8.89;97.73;94617.19;29395;203;63016;-58
2023/03/09 00:47:23;;;;;;;0.50;0.50;;;;;;;8.84;97.56;94618.22;29395;212;63005;-56
2023/03/09 00:47:55;;;;;;;0.50;0.50;;;;;;;8.85;98.22;94625.19;29394;197;64014;-58
2023/03/09 00:48:26;;;;;;;0.50;0.50;;;;;;;8.82;98.19;94622.38;29395;202;63005;-58
2023/03/09 00:48:58;;;;;;;1.35;1.35;;;;;;;8.80;98.62;94624.62;29395;244;63017;-57
2023/03/09 00:49:29;;;;;;;0.50;0.50;;;;;;;8.78;99.04;94626.87;29395;197;63005;-58
2023/03/09 00:50:01;;;;;;;0.50;0.50;;;;;;;8.80;99.00;94630.03;29395;218;63009;-60
2023/03/09 00:50:32;;;;;;;0.50;0.50;;;;;;;8.82;98.25;94635.91;29395;246;63004;-56
2023/03/09 00:51:04;;;;;;;0.50;0.50;;;;;;;8.83;97.77;94624.75;29395;206;63009;-54
2023/03/09 00:51:36;;;;;;;0.50;0.50;;;;;;;8.84;97.49;94629.03;29395;228;63004;-60
2023/03/09 00:52:08;;;;;;;0.50;0.50;;;;;;;8.80;97.54;94616.50;29395;199;63009;-56
2023/03/09 00:52:40;;;;;;;0.52;0.52;;;;;;;8.79;98.01;94631.16;29395;233;63004;-58
2023/03/09 00:53:11;;;;;;;0.50;0.50;;;;;;;8.78;97.79;94627.66;29394;373;64013;-57
2023/03/09 00:53:43;;;;;;;0.50;0.50;;;;;;;8.80;98.11;94620.00;29395;219;63004;-60
2023/03/09 00:54:18;;;;;;;0.50;0.50;;;;;;;8.81;96.81;94623.50;29395;226;63009;-56
2023/03/09 00:54:52;;;;;;;0.50;0.50;;;;;;;8.79;96.95;94614.94;29395;199;63005;-57
2023/03/09 00:55:24;;;;;;;0.50;0.50;;;;;;;8.72;97.50;94629.00;29395;222;63009;-57
2023/03/09 00:55:55;;;;;;;0.50;0.50;;;;;;;8.67;98.09;94621.09;29395;226;63005;-58
2023/03/09 00:56:27;;;;;;;0.50;0.50;;;;;;;8.62;98.22;94619.44;29395;206;63009;-55
2023/03/09 00:57:01;;;;;;;0.50;0.50;;;;;;;8.61;98.37;94617.84;29395;204;63005;-56
2023/03/09 00:57:32;;;;;;;0.50;0.50;;;;;;;8.63;97.90;94612.91;29395;236;63024;-57
2023/03/09 00:58:04;;;;;;;0.50;0.50;;;;;;;8.66;97.73;94624.97;29395;210;63004;-55
2023/03/09 00:58:37;;;;;;;0.50;0.50;;;;;;;8.59;96.91;94606.59;29394;231;64013;-59
2023/03/09 00:59:10;;;;;;;0.50;0.50;;;;;;;8.59;97.03;94609.28;29395;211;63014;-59
2023/03/09 00:59:46;;;;;;;0.50;0.50;;;;;;;8.56;97.28;94609.97;29395;224;63009;-58
2023/03/09 01:00:18;;;;;;;0.50;0.50;;;;;;;8.50;97.86;94611.28;29395;293;63004;-58
2023/03/09 01:00:49;;;;;;;0.50;0.50;;;;;;;8.45;98.07;94630.41;29395;196;63008;-58
2023/03/09 01:01:21;;;;;;;0.50;0.50;;;;;;;8.44;98.26;94612.63;29394;280;64008;-58
2023/03/09 01:01:53;;;;;;;0.50;0.50;;;;;;;8.43;98.70;94616.44;29395;289;63016;-58
2023/03/09 01:02:24;;;;;;;0.50;0.50;;;;;;;8.42;98.81;94624.88;29395;214;63005;-59
2023/03/09 01:02:55;;;;;;;0.50;0.50;;;;;;;8.41;98.73;94629.50;29395;207;63009;-56
2023/03/09 01:03:27;;;;;;;0.50;0.50;;;;;;;8.39;98.60;94626.34;29395;261;63005;-59
2023/03/09 01:04:02;;;;;;;0.50;0.50;;;;;;;8.43;98.38;94626.47;29395;204;63009;-56
2023/03/09 01:04:34;;;;;;;0.50;0.50;;;;;;;8.47;98.19;94628.16;29395;197;63005;-59
2023/03/09 01:05:06;;;;;;;0.50;0.50;;;;;;;8.44;98.36;94645.03;29395;206;63009;-53
2023/03/09 01:05:38;;;;;;;0.50;0.50;;;;;;;8.45;97.97;94625.00;29395;197;63004;-57
2023/03/09 01:06:10;;;;;;;0.52;0.52;;;;;;;8.49;97.57;94625.94;29395;318;63009;-64
2023/03/09 01:06:41;;;;;;;0.50;0.50;;;;;;;8.48;97.15;94613.53;29394;234;64009;-60
2023/03/09 01:07:13;;;;;;;0.50;0.50;;;;;;;8.49;97.76;94615.13;29394;230;64013;-56
2023/03/09 01:07:44;;;;;;;0.50;0.50;;;;;;;8.48;97.33;94621.63;29395;255;63004;-57
2023/03/09 01:08:15;;;;;;;0.50;0.50;;;;;;;8.46;97.16;94634.69;29395;220;63008;-61
2023/03/09 01:08:47;;;;;;;0.50;0.50;;;;;;;8.44;97.40;94687.50;29395;199;63004;-57
2023/03/09 01:09:19;;;;;;;0.50;0.50;;;;;;;8.47;95.81;94659.81;29394;206;64014;-57
2023/03/09 01:09:51;;;;;;;0.50;0.50;;;;;;;8.47;93.69;94644.38;29395;306;63005;-53
2023/03/09 01:10:22;;;;;;;0.50;0.50;;;;;;;8.46;94.21;94650.91;29395;204;63009;-56
2023/03/09 01:10:55;;;;;;;0.50;0.50;;;;;;;8.43;95.02;94659.69;29395;219;63005;-60
2023/03/09 01:11:26;;;;;;;0.50;0.50;;;;;;;8.40;95.95;94671.16;29395;231;63009;-61
2023/03/09 01:11:58;;;;;;;0.50;0.50;;;;;;;8.41;95.67;94651.13;29395;202;63005;-61
2023/03/09 01:12:29;;;;;;;0.50;0.50;;;;;;;8.43;95.19;94648.88;29395;223;63009;-57
2023/03/09 01:13:00;;;;;;;0.50;0.50;;;;;;;8.45;94.77;94656.66;29395;282;63005;-58
2023/03/09 01:13:32;;;;;;;0.50;0.50;;;;;;;8.46;94.65;94667.13;29395;296;63009;-59
2023/03/09 01:14:03;;;;;;;0.50;0.50;;;;;;;8.44;94.00;94655.06;29395;197;63004;-57
2023/03/09 01:14:35;;;;;;;0.50;0.50;;;;;;;8.45;94.27;94652.03;29394;202;64013;-56
2023/03/09 01:15:07;;;;;;;0.50;0.50;;;;;;;8.41;93.44;94643.00;29394;228;64009;-59
2023/03/09 01:15:39;;;;;;;0.50;0.50;;;;;;;8.40;94.06;94663.06;29395;284;63008;-58
2023/03/09 01:16:14;;;;;;;0.50;0.50;;;;;;;8.38;93.94;94651.78;29395;246;63004;-57
2023/03/09 01:16:45;;;;;;;0.50;0.50;;;;;;;8.36;94.17;94654.81;29395;208;63009;-60
2023/03/09 01:17:16;;;;;;;0.70;0.70;;;;;;;8.34;93.12;94656.28;29395;227;63005;-56
2023/03/09 01:17:48;;;;;;;0.50;0.50;;;;;;;8.35;92.50;94652.44;29395;219;63009;-63
2023/03/09 01:18:22;;;;;;;0.50;0.50;;;;;;;8.29;93.23;94640.25;29395;210;63005;-62
2023/03/09 01:20:03;;;;;;;0.50;0.50;;;;;;;7.99;95.51;94651.16;88174;199;64005;-61
2023/03/09 01:20:35;;;;;;;0.50;0.50;;;;;;;7.99;94.90;94629.53;29394;198;64009;-62
2023/03/09 01:21:07;;;;;;;0.50;0.50;;;;;;;8.06;92.12;94642.50;29395;200;63005;-57
2023/03/09 01:21:38;;;;;;;0.50;0.50;;;;;;;8.07;91.81;94623.28;29395;200;63009;-59
2023/03/09 01:22:09;;;;;;;0.50;0.50;;;;;;;8.02;92.71;94628.88;29395;204;63005;-56
2023/03/09 01:22:42;;;;;;;0.50;0.50;;;;;;;8.06;93.21;94632.50;29395;242;63009;-56
2023/03/09 01:23:13;;;;;;;0.50;0.50;;;;;;;8.06;92.71;94620.91;29395;265;63018;-61
2023/03/09 01:23:45;;;;;;;0.60;0.60;;;;;;;8.07;92.00;94623.28;29395;220;63017;-58
2023/03/09 01:24:16;;;;;;;0.50;0.50;;;;;;;8.11;90.94;94625.31;29395;216;63004;-57
2023/03/09 01:24:47;;;;;;;0.50;0.50;;;;;;;8.08;90.90;94632.97;29395;248;63009;-54
2023/03/09 01:25:18;;;;;;;0.50;0.50;;;;;;;8.10;91.15;94616.44;29395;209;63008;-55
2023/03/09 01:25:50;;;;;;;0.60;0.60;;;;;;;8.14;91.15;94620.03;29394;202;64013;-57
2023/03/09 01:26:24;;;;;;;0.50;0.50;;;;;;;8.14;90.42;94605.75;29395;212;63004;-61
2023/03/09 01:26:56;;;;;;;0.50;0.50;;;;;;;8.12;90.67;94613.41;29395;214;63008;-57
2023/03/09 01:27:27;;;;;;;0.50;0.50;;;;;;;8.10;91.15;94612.94;29394;218;64008;-57
2023/03/09 01:27:59;;;;;;;0.50;0.50;;;;;;;8.07;92.05;94620.56;29395;241;63009;-57
2023/03/09 01:28:30;;;;;;;0.50;0.50;;;;;;;8.08;91.21;94618.66;29395;260;63005;-59
2023/03/09 01:29:02;;;;;;;0.50;0.50;;;;;;;8.02;90.90;94606.47;29395;206;63009;-57
2023/03/09 01:29:34;;;;;;;0.50;0.50;;;;;;;7.99;91.82;94623.34;29395;275;63005;-57
2023/03/09 01:30:06;;;;;;;0.50;0.50;;;;;;;7.92;91.82;94613.09;29395;209;63009;-56
2023/03/09 01:30:38;;;;;;;0.50;0.50;;;;;;;7.89;92.29;94612.97;29395;312;63005;-57
2023/03/09 01:31:12;;;;;;;0.50;0.50;;;;;;;7.92;92.89;94623.91;29394;221;64013;-54
2023/03/09 01:31:43;;;;;;;0.50;0.50;;;;;;;7.89;92.05;94619.16;29395;199;63004;-57
2023/03/09 01:32:15;;;;;;;0.60;0.60;;;;;;;7.86;91.82;94619.03;29395;222;63009;-57
2023/03/09 01:32:46;;;;;;;0.52;0.52;;;;;;;7.79;92.21;94629.56;29395;202;63004;-56
2023/03/09 01:33:18;;;;;;;0.50;0.50;;;;;;;7.75;92.86;94637.53;29395;204;63009;-61
2023/03/09 01:33:49;;;;;;;0.50;0.50;;;;;;;7.81;92.86;94633.50;29394;271;64008;-56
2023/03/09 01:34:21;;;;;;;0.50;0.50;;;;;;;7.91;92.18;94626.94;29395;196;63008;-58
2023/03/09 01:34:52;;;;;;;0.50;0.50;;;;;;;7.95;91.85;94636.75;29395;298;63005;-54
2023/03/09 01:35:24;;;;;;;0.50;0.50;;;;;;;8.01;91.18;94646.22;29395;205;63009;-55
2023/03/09 01:35:55;;;;;;;0.50;0.50;;;;;;;8.05;90.71;94640.94;29394;199;64009;-57
2023/03/09 01:36:29;;;;;;;0.50;0.50;;;;;;;8.13;89.77;94633.88;29395;245;63009;-57
2023/03/09 01:37:01;;;;;;;0.50;0.50;;;;;;;8.14;90.01;94649.75;29395;256;63005;-56
2023/03/09 01:37:33;;;;;;;0.50;0.50;;;;;;;8.14;89.54;94648.97;29395;295;63009;-56
2023/03/09 01:38:05;;;;;;;0.60;0.60;;;;;;;8.13;90.23;94652.78;29395;205;63000;-56
2023/03/09 01:38:37;;;;;;;0.50;0.50;;;;;;;8.10;90.24;94651.53;29395;217;63009;-56
2023/03/09 01:39:10;;;;;;;0.50;0.50;;;;;;;8.14;89.82;94643.56;29395;218;63004;-55
2023/03/09 01:39:41;;;;;;;0.50;0.50;;;;;;;8.14;89.34;94657.84;29395;232;63009;-58
2023/03/09 01:40:31;;;;;;;0.50;0.50;;;;;;;8.15;89.99;94651.34;29394;205;64009;-57
2023/03/09 01:41:02;;;;;;;0.50;0.50;;;;;;;8.13;90.08;94652.78;29395;220;63009;-62
2023/03/09 01:41:33;;;;;;;0.50;0.50;;;;;;;8.12;90.58;94652.00;29395;222;63004;-58
2023/03/09 01:42:05;;;;;;;0.60;0.60;;;;;;;8.16;89.99;94644.03;29395;220;63009;-55
2023/03/09 01:42:36;;;;;;;0.50;0.50;;;;;;;8.16;90.23;94639.41;29395;250;63005;-55
2023/03/09 01:43:34;;;;;;;0.50;0.50;;;;;;;8.18;89.50;94652.59;29395;258;63009;-58
2023/03/09 01:44:09;;;;;;;0.60;0.60;;;;;;;8.18;89.73;94625.56;29395;203;63009;-56
2023/03/09 01:44:40;;;;;;;0.60;0.60;;;;;;;8.17;90.61;94651.81;29394;199;64009;-55
2023/03/09 01:45:51;;;;;;;0.50;0.50;;;;;;;8.10;91.14;94645.34;29395;216;63009;-55
2023/03/09 01:46:29;;;;;;;0.50;0.50;;;;;;;8.12;90.71;94632.31;29395;243;63004;-57
2023/03/09 01:47:01;;;;;;;1.05;1.05;;;;;;;8.10;90.58;94640.72;29395;214;63009;-57
2023/03/09 01:47:32;;;;;;;0.60;0.60;;;;;;;8.08;90.96;94638.38;29395;258;63004;-56
2023/03/09 01:48:04;;;;;;;0.50;0.50;;;;;;;8.09;90.70;94644.56;29395;250;63009;-58
2023/03/09 01:48:35;;;;;;;0.60;0.60;;;;;;;8.06;91.00;94637.13;29395;253;63004;-56
2023/03/09 01:49:28;;;;;;;0.50;0.50;;;;;;;8.02;91.73;94645.09;29395;238;63008;-57
2023/03/09 01:50:02;;;;;;;0.50;0.50;;;;;;;7.91;92.32;94641.22;29394;237;64009;-56
2023/03/09 01:50:35;;;;;;;0.60;0.60;;;;;;;7.90;92.82;94639.66;29395;280;63009;-59
2023/03/09 01:51:06;;;;;;;0.50;0.50;;;;;;;7.93;92.32;94636.28;29395;264;63005;-56
2023/03/09 01:52:09;;;;;;;0.55;0.55;;;;;;;7.93;92.49;94646.28;29395;249;63009;-56
2023/03/09 01:52:44;;;;;;;0.50;0.50;;;;;;;7.94;92.34;94627.06;29417;203;63009;-56
2023/03/09 01:53:18;;;;;;;0.50;0.50;;;;;;;7.91;93.10;94643.94;29395;229;63005;-59
2023/03/09 01:53:51;;;;;;;0.50;0.50;;;;;;;7.90;92.20;94642.34;29395;232;63009;-58
2023/03/09 01:54:58;;;;;;;0.50;0.50;;;;;;;7.95;92.27;94644.84;29395;196;63004;-61
2023/03/09 01:55:42;;;;;;;0.50;0.50;;;;;;;7.96;91.80;94634.84;29394;251;64013;-56
2023/03/09 01:56:16;;;;;;;0.50;0.50;;;;;;;7.88;91.60;94639.19;29395;207;63004;-56
2023/03/09 01:56:53;;;;;;;0.60;0.60;;;;;;;7.82;92.19;94635.09;29395;242;63008;-56
2023/03/09 01:57:32;;;;;;;0.60;0.60;;;;;;;7.78;92.82;94639.56;29395;219;63005;-57
2023/03/09 01:58:26;;;;;;;0.60;0.60;;;;;;;7.93;91.57;94647.09;29395;294;63009;-69
2023/03/09 01:59:02;;;;;;;0.50;0.50;;;;;;;7.93;90.62;94641.69;29394;240;64009;-55
2023/03/09 01:59:35;;;;;;;0.60;0.60;;;;;;;7.92;91.10;94645.50;29395;248;63009;-55
2023/03/09 02:00:12;;;;;;;0.50;0.50;;;;;;;7.92;91.54;94642.81;29394;288;64009;-55
2023/03/09 02:00:47;;;;;;;0.60;0.60;;;;;;;7.91;91.89;94649.31;29395;211;63009;-58
2023/03/09 02:01:19;;;;;;;0.50;0.50;;;;;;;7.93;91.71;94657.87;29395;232;63004;-55
2023/03/09 02:01:51;;;;;;;0.50;0.50;;;;;;;7.91;91.51;94651.25;29395;198;63009;-56
2023/03/09 02:02:28;;;;;;;0.50;0.50;;;;;;;7.92;91.79;94655.53;29395;239;63004;-57
2023/03/09 02:03:09;;;;;;;0.60;0.60;;;;;;;7.95;91.33;94647.56;29394;299;64013;-57
2023/03/09 02:03:45;;;;;;;0.60;0.60;;;;;;;7.94;91.09;94654.06;29417;252;63004;-60
2023/03/09 02:04:35;;;;;;;0.60;0.60;;;;;;;7.94;90.97;94666.78;29395;218;63008;-56
2023/03/09 02:05:20;;;;;;;0.52;0.52;;;;;;;7.99;90.49;94645.75;29394;264;64009;-57
2023/03/09 02:06:18;;;;;;;0.50;0.50;;;;;;;8.04;90.57;94648.25;29417;232;63009;-56
2023/03/09 02:06:50;;;;;;;0.60;0.60;;;;;;;8.05;90.46;94641.72;29395;220;63005;-69
2023/03/09 02:07:23;;;;;;;0.50;0.50;;;;;;;8.06;90.22;94664.91;29395;236;63009;-61
2023/03/09 02:07:56;;;;;;;0.60;0.60;;;;;;;8.03;90.41;94643.97;29395;234;63005;-56
2023/03/09 02:08:30;;;;;;;0.50;0.50;;;;;;;7.99;90.49;94650.34;29395;211;63009;-60
2023/03/09 02:09:46;;;;;;;0.50;0.50;;;;;;;7.92;90.93;94629.31;29395;268;63004;-56
2023/03/09 02:10:37;;;;;;;0.50;0.50;;;;;;;7.96;89.74;94635.63;29394;208;64013;-59
2023/03/09 02:11:11;;;;;;;0.50;0.50;;;;;;;7.98;89.29;94622.56;29395;199;63004;-58
2023/03/09 02:11:45;;;;;;;0.60;0.60;;;;;;;7.97;89.42;94620.97;29395;256;63008;-57
2023/03/09 02:12:19;;;;;;;0.60;0.60;;;;;;;7.97;88.99;94626.38;29395;233;63005;-58
2023/03/09 02:12:54;;;;;;;0.60;0.60;;;;;;;7.96;88.84;94624.03;29395;223;63009;-55
2023/03/09 02:13:33;;;;;;;0.50;0.50;;;;;;;7.94;89.24;94602.75;29395;202;63005;-55
2023/03/09 02:14:06;;;;;;;0.50;0.50;;;;;;;7.87;88.87;94617.91;29395;218;63009;-58
2023/03/09 02:14:37;;;;;;;0.50;0.50;;;;;;;7.84;89.75;94616.66;29395;267;63005;-58
2023/03/09 02:15:10;;;;;;;0.50;0.50;;;;;;;7.83;89.52;94609.69;29395;290;63017;-58
2023/03/09 02:15:41;;;;;;;0.50;0.50;;;;;;;7.77;89.80;94621.78;29394;208;64009;-56
2023/03/09 02:16:12;;;;;;;0.50;0.50;;;;;;;7.74;89.85;94600.84;29395;208;63009;-56
2023/03/09 02:16:43;;;;;;;0.57;0.57;;;;;;;7.71;90.14;94617.72;29395;198;63004;-55
2023/03/09 02:17:16;;;;;;;0.60;0.60;;;;;;;7.67;90.64;94611.38;29395;269;63009;-55
2023/03/09 02:17:49;;;;;;;0.50;0.50;;;;;;;7.66;90.89;94616.00;29395;228;63004;-58
2023/03/09 02:18:21;;;;;;;0.50;0.50;;;;;;;7.69;89.78;94614.53;29395;307;63024;-56
2023/03/09 02:18:53;;;;;;;0.60;0.60;;;;;;;7.69;90.50;94620.75;29395;206;63004;-56
2023/03/09 02:19:40;;;;;;;0.50;0.50;;;;;;;7.67;89.81;94628.37;29395;198;63008;-57
2023/03/09 02:20:46;;;;;;;0.50;0.50;;;;;;;7.70;89.40;94626.94;29395;250;63005;-59
2023/03/09 02:21:39;;;;;;;0.60;0.60;;;;;;;7.72;90.29;94632.78;29394;219;64002;-56
2023/03/09 02:22:11;;;;;;;0.60;0.60;;;;;;;7.75;90.12;94634.84;29395;197;63009;-57
2023/03/09 02:22:44;;;;;;;0.50;0.50;;;;;;;7.77;89.63;94632.59;29394;219;64009;-57
2023/03/09 02:23:46;;;;;;;0.70;0.70;;;;;;;7.76;88.59;94628.31;29395;205;63009;-54
2023/03/09 02:24:41;;;;;;;0.50;0.50;;;;;;;7.69;89.46;94626.13;29417;233;63009;-55
2023/03/09 02:25:31;;;;;;;0.50;0.50;;;;;;;7.67;90.08;94622.19;29395;227;63004;-55
2023/03/09 02:26:43;;;;;;;0.60;0.60;;;;;;;7.72;89.99;94616.59;29394;218;64013;-55
2023/03/09 02:27:23;;;;;;;0.60;0.60;;;;;;;7.73;88.93;94621.66;29417;291;63005;-60
2023/03/09 02:27:55;;;;;;;0.50;0.50;;;;;;;7.75;88.81;94618.63;29395;235;63009;-57
2023/03/09 02:28:26;;;;;;;0.50;0.50;;;;;;;7.76;88.97;94620.22;29395;226;63005;-54
2023/03/09 02:29:01;;;;;;;0.60;0.60;;;;;;;7.77;89.12;94611.00;29395;215;63009;-55
2023/03/09 02:29:32;;;;;;;0.52;0.52;;;;;;;7.77;89.11;94618.31;29395;309;63005;-57
2023/03/09 02:30:06;;;;;;;0.50;0.50;;;;;;;7.77;88.55;94621.78;29394;234;64013;-57
2023/03/09 02:30:41;;;;;;;0.60;0.60;;;;;;;7.76;89.14;94624.81;29395;207;63005;-57
2023/03/09 02:31:14;;;;;;;0.50;0.50;;;;;;;7.79;88.47;94618.78;29395;262;63009;-60
2023/03/09 02:31:46;;;;;;;0.57;0.57;;;;;;;7.79;88.46;94618.78;29395;206;63004;-58
2023/03/09 02:32:18;;;;;;;0.60;0.60;;;;;;;7.76;88.77;94633.72;29395;202;63009;-57
2023/03/09 02:33:00;;;;;;;0.50;0.50;;;;;;;7.72;89.20;94624.69;29395;197;63004;-59
2023/03/09 02:33:32;;;;;;;0.50;0.50;;;;;;;7.67;89.48;94624.88;29395;216;63008;-60
2023/03/09 02:34:03;;;;;;;0.60;0.60;;;;;;;7.65;89.61;94616.31;29395;266;63005;-57
2023/03/09 02:34:36;;;;;;;0.50;0.50;;;;;;;7.59;89.49;94620.37;29395;203;63009;-61
2023/03/09 02:35:09;;;;;;;0.50;0.50;;;;;;;7.56;90.18;94607.53;29394;264;64009;-65
2023/03/09 02:35:41;;;;;;;0.60;0.60;;;;;;;7.58;90.14;94624.19;29395;204;63009;-57
2023/03/09 02:36:12;;;;;;;0.60;0.60;;;;;;;7.60;90.02;94611.16;29395;283;63005;-56
2023/03/09 02:36:44;;;;;;;0.50;0.50;;;;;;;7.60;89.50;94616.53;29394;218;64013;-58
2023/03/09 02:37:43;;;;;;;0.60;0.60;;;;;;;7.54;90.12;94615.16;29395;205;63005;-56
2023/03/09 02:38:15;;;;;;;0.50;0.50;;;;;;;7.51;90.24;94616.59;29395;202;63009;-56
2023/03/09 02:38:46;;;;;;;0.60;0.60;;;;;;;7.55;89.51;94624.84;29395;221;63004;-55
2023/03/09 02:39:44;;;;;;;0.50;0.50;;;;;;;7.53;89.53;94621.66;29395;233;63009;-59
2023/03/09 02:40:35;;;;;;;0.60;0.60;;;;;;;7.52;90.13;94625.47;29394;226;64009;-58
2023/03/09 02:41:10;;;;;;;0.50;0.50;;;;;;;7.54;89.51;94615.94;29395;248;63008;-55
2023/03/09 02:41:41;;;;;;;0.50;0.50;;;;;;;7.51;89.66;94605.00;29395;199;63005;-56
2023/03/09 02:42:13;;;;;;;0.50;0.50;;;;;;;7.50;89.85;94612.31;29395;198;63009;-63
2023/03/09 02:42:46;;;;;;;0.50;0.50;;;;;;;7.48;90.32;94605.66;29395;208;63005;-57
2023/03/09 02:43:22;;;;;;;0.50;0.50;;;;;;;7.42;90.87;94615.88;29395;277;63014;-57
2023/03/09 02:43:57;;;;;;;0.50;0.50;;;;;;;7.46;90.99;94606.00;29395;222;63005;-57
2023/03/09 02:44:29;;;;;;;0.50;0.50;;;;;;;7.61;89.57;94615.44;29394;239;64013;-57
2023/03/09 02:45:00;;;;;;;0.50;0.50;;;;;;;7.60;89.65;94611.94;29395;212;63005;-56
2023/03/09 02:45:33;;;;;;;0.50;0.50;;;;;;;7.61;89.62;94620.81;29395;236;63009;-58
2023/03/09 02:46:05;;;;;;;0.50;0.50;;;;;;;7.65;88.17;94614.41;29395;213;63004;-57
2023/03/09 02:46:36;;;;;;;0.50;0.50;;;;;;;7.65;88.18;94609.00;29394;268;64013;-57
2023/03/09 02:47:13;;;;;;;0.60;0.60;;;;;;;7.64;88.77;94606.66;29395;294;63004;-60